ポートモレスビー の空港の天気 - METARとTAF

ポートモレスビー・ジャクソン国際空港 ( AYPY / POM ) - パプアニューギニア ポートモレスビー
飛行場実況気象(Metar)
観測時間11/27 09:00 PGT (11/26 23:00 UTC)
風向・風速北北西 4m/s
視程10km以上
天気現象煙霧
全天の4割程度の雲 雲底高度 1070m
全天の8割程度の雲 雲底高度 1830m
気温27℃
湿度89%
気圧1009hPa
METARAYPY 262300Z 34007KT 9999 HZ SCT035 BKN060 27/25 Q1009
過去の天気等 Google飛行場航空写真 Wunderground天気予報

過去48時間のMETAR

飛行場予報(TAF)
発表時間: 11/27 01:00 PGT (11/26 15:00 UTC)
予報対象時間: 27日4時 PGT ~ 28日4時 PGT
風向・風速西北西 3m/s
視程10km以上
天気現象弱い雨霧雨
少しの雲 雲底高度 490m
全天の4割程度の雲 雲底高度 910m
全天の8割程度の雲 雲底高度 3960m
27日8時 PGT から
風向・風速北西 3m/s
視程10km以上
天気現象弱いしゅう雨
全天の4割程度の雲 雲底高度 550m
全天の4割程度の雲 雲底高度 1220m
全天の8割程度の雲 雲底高度 3960m
27日5時 PGT から 確率 30% で
風向・風速不定 2m/s
視程500m
天気現象
TAF AYPY 261500Z 2618/2718 30005KT 9999 -RADZ FEW016 SCT030 BKN130
FM262200 32006KT 9999 -SHRA SCT018 SCT040 BKN130 INTER 2700/2708 4000 +TSRA BKN010 FEW018CB
PROB30 2619/2621 VRB03KT 0500 FG T 25 26 29 31 Q 1005 1006 1008 1007 -----------------------------------------------------------------